createdAt,value
2023-05-15T00:01:58.036Z,5.38
2023-05-15T00:04:25.040Z,5.22
2023-05-15T00:06:52.073Z,8.38
2023-05-15T00:09:19.004Z,5.07
2023-05-15T00:11:46.022Z,4.50
2023-05-15T00:14:12.932Z,6.50
2023-05-15T00:16:40.022Z,6.65
2023-05-15T00:19:07.668Z,4.78
2023-05-15T00:21:34.700Z,7.45
2023-05-15T00:24:01.723Z,4.97
2023-05-15T00:26:28.662Z,4.72
2023-05-15T00:28:55.629Z,5.72
2023-05-15T00:31:24.460Z,4.45
2023-05-15T00:33:51.933Z,4.70
2023-05-15T00:36:21.664Z,5.95
2023-05-15T00:38:51.025Z,4.15
2023-05-15T00:41:18.858Z,4.03
2023-05-15T00:43:46.835Z,3.92
2023-05-15T00:46:14.315Z,3.47
2023-05-15T00:48:43.728Z,3.03
2023-05-15T00:51:11.533Z,3.38
2023-05-15T00:53:39.160Z,5.55
2023-05-15T00:56:07.106Z,4.80
2023-05-15T00:58:34.629Z,5.40
2023-05-15T01:01:01.708Z,4.70
2023-05-15T01:03:29.234Z,5.35
2023-05-15T01:05:56.251Z,3.75
2023-05-15T01:08:32.241Z,3.80
2023-05-15T01:11:00.373Z,3.17
2023-05-15T01:13:27.274Z,4.63
2023-05-15T01:15:55.419Z,5.15
2023-05-15T01:18:22.929Z,4.75
2023-05-15T01:21:25.088Z,4.68
2023-05-15T01:24:13.710Z,3.05
2023-05-15T01:27:00.829Z,4.60
2023-05-15T01:29:40.021Z,2.72
2023-05-15T01:32:19.303Z,4.97
2023-05-15T01:35:04.642Z,2.70
2023-05-15T01:37:34.518Z,2.45
2023-05-15T01:40:07.095Z,2.67
2023-05-15T01:42:40.706Z,3.38
2023-05-15T01:45:11.784Z,3.72
2023-05-15T01:47:43.958Z,3.53
2023-05-15T01:50:15.378Z,4.80
2023-05-15T01:52:47.846Z,3.08
2023-05-15T01:55:16.376Z,3.17
2023-05-15T01:57:45.118Z,4.28
2023-05-15T02:00:13.969Z,4.18
2023-05-15T02:02:42.391Z,4.35
2023-05-15T02:05:10.013Z,3.88
2023-05-15T02:07:38.238Z,4.93
2023-05-15T02:10:06.151Z,7.18
2023-05-15T02:12:34.652Z,5.95
2023-05-15T02:15:04.283Z,3.55
2023-05-15T02:17:31.376Z,2.35
2023-05-15T02:19:58.342Z,4.13
2023-05-15T02:22:25.477Z,3.25
2023-05-15T02:24:52.592Z,2.70
2023-05-15T02:27:32.202Z,2.80
2023-05-15T02:30:17.815Z,3.08
2023-05-15T02:33:03.580Z,4.07
2023-05-15T02:35:46.830Z,3.30
2023-05-15T02:38:17.276Z,4.10
2023-05-15T02:40:47.843Z,4.47
2023-05-15T02:43:17.849Z,3.22
2023-05-15T02:45:47.740Z,3.00
2023-05-15T02:48:16.052Z,3.05
2023-05-15T02:50:44.109Z,3.05
2023-05-15T02:53:11.781Z,2.72
2023-05-15T02:55:38.839Z,3.55
2023-05-15T02:58:06.253Z,2.60
2023-05-15T03:00:33.595Z,2.90
2023-05-15T03:03:00.583Z,3.90
2023-05-15T03:05:28.842Z,3.08
2023-05-15T03:07:57.087Z,3.10
2023-05-15T03:10:24.352Z,2.80
2023-05-15T03:12:51.490Z,2.70
2023-05-15T03:15:19.271Z,4.70
2023-05-15T03:17:46.459Z,3.58
2023-05-15T03:20:14.515Z,3.05
2023-05-15T03:22:42.105Z,6.15
2023-05-15T03:25:12.359Z,3.95
2023-05-15T03:27:39.321Z,3.83
2023-05-15T03:30:06.859Z,3.90
2023-05-15T03:32:34.388Z,4.13
2023-05-15T03:35:04.832Z,3.45
2023-05-15T03:37:32.491Z,2.78
2023-05-15T03:39:59.518Z,4.72
2023-05-15T03:42:27.931Z,3.33
2023-05-15T03:44:56.327Z,4.95
2023-05-15T03:47:23.639Z,3.20
2023-05-15T03:49:52.953Z,2.97
2023-05-15T03:52:20.003Z,4.13
2023-05-15T03:54:47.147Z,3.80
2023-05-15T03:57:14.151Z,4.10
2023-05-15T03:59:41.514Z,11.00
2023-05-15T04:02:08.485Z,4.15
2023-05-15T04:04:35.708Z,4.00
2023-05-15T04:07:02.671Z,5.55
2023-05-15T04:09:29.781Z,6.32
2023-05-15T04:11:56.717Z,3.63
2023-05-15T04:14:23.744Z,5.95
2023-05-15T04:16:50.898Z,3.92
2023-05-15T04:19:18.007Z,5.90
2023-05-15T04:21:45.145Z,4.70
2023-05-15T04:24:12.785Z,6.40
2023-05-15T04:26:39.718Z,6.60
2023-05-15T04:29:06.646Z,5.85
2023-05-15T04:31:35.178Z,6.00
2023-05-15T04:34:02.348Z,5.05
2023-05-15T04:36:29.333Z,4.68
2023-05-15T04:38:56.489Z,4.75
2023-05-15T04:41:23.395Z,4.65
2023-05-15T04:43:50.902Z,5.55
2023-05-15T04:46:17.846Z,5.47
2023-05-15T04:48:44.724Z,5.90
2023-05-15T04:51:12.251Z,4.80
2023-05-15T04:53:39.146Z,5.32
2023-05-15T04:56:06.636Z,4.15
2023-05-15T04:58:33.568Z,4.30
2023-05-15T05:01:03.453Z,4.47
2023-05-15T05:03:31.008Z,5.28
2023-05-15T05:05:57.982Z,6.60
2023-05-15T05:08:24.905Z,4.80
2023-05-15T05:10:57.424Z,5.43
2023-05-15T05:13:24.400Z,4.82
2023-05-15T05:15:51.383Z,5.25
2023-05-15T05:18:18.252Z,3.83
2023-05-15T05:20:45.176Z,4.32
2023-05-15T05:23:14.793Z,7.90
2023-05-15T05:25:42.163Z,4.60
2023-05-15T05:28:09.143Z,4.55
2023-05-15T05:30:36.015Z,4.25
2023-05-15T05:33:03.004Z,3.47
2023-05-15T05:35:30.066Z,3.95
2023-05-15T05:37:57.031Z,6.07
2023-05-15T05:40:23.941Z,5.65
2023-05-15T05:42:51.753Z,4.25
2023-05-15T05:45:18.690Z,8.35
2023-05-15T05:47:45.833Z,5.20
2023-05-15T05:50:12.748Z,6.05
2023-05-15T05:52:39.724Z,6.50
2023-05-15T05:55:06.983Z,5.28
2023-05-15T05:57:33.939Z,6.03
2023-05-15T06:00:01.227Z,4.43
2023-05-15T06:02:28.691Z,6.68
2023-05-15T06:04:56.024Z,6.78
2023-05-15T06:07:23.556Z,8.18
2023-05-15T06:09:50.907Z,4.90
2023-05-15T06:12:19.214Z,5.75
2023-05-15T06:14:46.889Z,4.35
2023-05-15T06:17:13.884Z,5.30
2023-05-15T06:19:40.810Z,10.70
2023-05-15T06:22:07.757Z,7.57
2023-05-15T06:24:34.667Z,5.90
2023-05-15T06:27:01.554Z,4.60
2023-05-15T06:29:28.456Z,5.30
2023-05-15T06:31:55.306Z,5.10
2023-05-15T06:34:22.217Z,4.45
2023-05-15T06:36:49.085Z,5.82
2023-05-15T06:39:16.213Z,5.00
2023-05-15T06:41:43.221Z,5.22
2023-05-15T06:44:12.732Z,8.10
2023-05-15T06:46:39.711Z,5.95
2023-05-15T06:49:06.664Z,6.72
2023-05-15T06:51:33.670Z,11.90
2023-05-15T06:54:00.693Z,8.05
2023-05-15T06:56:27.594Z,12.13
2023-05-15T06:58:54.527Z,6.97
2023-05-15T07:01:21.434Z,7.05
2023-05-15T07:03:48.556Z,9.43
2023-05-15T07:06:15.725Z,6.07
2023-05-15T07:08:42.913Z,5.93
2023-05-15T07:11:09.898Z,7.45
2023-05-15T07:13:36.805Z,7.55
2023-05-15T07:16:04.186Z,8.25
2023-05-15T07:18:31.165Z,6.15
2023-05-15T07:20:58.102Z,6.25
2023-05-15T07:23:24.999Z,7.75
2023-05-15T07:25:56.384Z,7.22
2023-05-15T07:28:23.302Z,5.72
2023-05-15T07:30:50.657Z,5.93
2023-05-15T07:33:17.596Z,7.95
2023-05-15T07:35:44.487Z,8.93
2023-05-15T07:38:11.671Z,10.18
2023-05-15T07:40:38.716Z,7.10
2023-05-15T07:43:05.793Z,11.10
2023-05-15T07:45:32.846Z,7.95
2023-05-15T07:48:00.157Z,8.45
2023-05-15T07:50:27.238Z,8.35
2023-05-15T07:52:54.154Z,9.93
2023-05-15T07:55:21.204Z,8.05
2023-05-15T07:57:53.507Z,10.50
2023-05-15T08:02:49.197Z,9.75
2023-05-15T08:05:16.682Z,9.75
2023-05-15T08:07:43.655Z,8.05
2023-05-15T08:10:10.809Z,13.90
2023-05-15T08:12:38.099Z,10.13
2023-05-15T08:15:05.429Z,9.98
2023-05-15T08:17:32.337Z,11.10
2023-05-15T08:19:59.380Z,9.75
2023-05-15T08:22:26.291Z,9.15
2023-05-15T08:24:53.217Z,6.55
2023-05-15T08:27:20.120Z,8.70
2023-05-15T08:29:47.421Z,8.35
2023-05-15T08:32:14.296Z,7.72
2023-05-15T08:34:41.164Z,9.25
2023-05-15T08:37:08.067Z,9.63
2023-05-15T08:39:35.015Z,8.88
2023-05-15T08:42:10.794Z,7.30
2023-05-15T08:44:39.345Z,8.68
2023-05-15T08:47:06.918Z,8.25
2023-05-15T08:50:04.736Z,7.63
2023-05-15T08:52:33.646Z,9.45
2023-05-15T08:55:01.766Z,10.18
2023-05-15T08:57:33.208Z,7.88
2023-05-15T09:00:01.101Z,7.25
2023-05-15T09:02:28.612Z,8.55
2023-05-15T09:04:55.542Z,8.27
2023-05-15T09:07:23.514Z,6.43
2023-05-15T09:09:51.369Z,7.10
2023-05-15T09:12:19.166Z,16.05
2023-05-15T09:14:46.529Z,15.52
2023-05-15T09:17:13.474Z,13.23
2023-05-15T09:19:42.886Z,10.63
2023-05-15T09:22:18.531Z,16.25
2023-05-15T09:24:48.332Z,14.63
2023-05-15T09:27:15.533Z,15.25
2023-05-15T09:29:42.661Z,17.65
2023-05-15T09:32:14.494Z,14.43
2023-05-15T09:34:44.063Z,12.20
2023-05-15T09:37:27.429Z,13.20
2023-05-15T09:39:54.440Z,15.00
2023-05-15T09:42:24.589Z,12.23
2023-05-15T09:44:54.166Z,12.77
2023-05-15T09:47:21.532Z,12.65
2023-05-15T09:49:49.323Z,12.32
2023-05-15T09:52:16.684Z,15.90
2023-05-15T09:54:48.842Z,11.52
2023-05-15T09:57:22.515Z,13.30
2023-05-15T09:59:49.839Z,11.90
2023-05-15T10:02:32.113Z,11.50
2023-05-15T10:04:59.742Z,9.50
2023-05-15T10:07:34.883Z,8.65
2023-05-15T10:10:03.690Z,8.00
2023-05-15T10:12:36.673Z,9.75
2023-05-15T10:15:04.311Z,8.13
2023-05-15T10:17:34.493Z,7.38
2023-05-15T10:20:02.584Z,8.35
2023-05-15T10:22:31.130Z,7.25
2023-05-15T10:25:08.938Z,8.02
2023-05-15T10:27:38.838Z,7.10
2023-05-15T10:30:07.982Z,6.82
2023-05-15T10:32:35.455Z,5.40
2023-05-15T10:35:04.298Z,5.50
2023-05-15T10:37:32.115Z,6.18
2023-05-15T10:40:00.365Z,6.90
2023-05-15T10:42:27.836Z,5.97
2023-05-15T10:45:00.054Z,5.13
2023-05-15T10:49:54.552Z,4.85
2023-05-15T10:52:21.783Z,5.68
2023-05-15T10:54:49.080Z,7.38
2023-05-15T10:57:16.198Z,4.75
2023-05-15T10:59:44.234Z,5.97
2023-05-15T11:02:24.209Z,4.63
2023-05-15T11:05:09.360Z,4.82
2023-05-15T11:07:36.283Z,4.38
2023-05-15T11:10:29.012Z,4.90
2023-05-15T11:12:57.784Z,3.90
2023-05-15T11:15:24.803Z,4.60
2023-05-15T11:18:08.109Z,3.90
2023-05-15T11:20:53.234Z,3.97
2023-05-15T11:23:25.546Z,3.53
2023-05-15T11:26:01.588Z,4.93
2023-05-15T11:28:30.768Z,4.00
2023-05-15T11:31:06.747Z,4.05
2023-05-15T11:33:33.800Z,3.25
2023-05-15T11:36:01.438Z,3.42
2023-05-15T11:38:28.410Z,2.88
2023-05-15T11:40:56.713Z,3.50
2023-05-15T11:43:34.978Z,3.05
2023-05-15T11:46:13.736Z,3.22
2023-05-15T11:48:41.590Z,3.30
2023-05-15T11:51:21.951Z,3.20
2023-05-15T11:53:54.393Z,4.40
2023-05-15T11:56:28.088Z,3.88
2023-05-15T11:59:00.240Z,3.63
2023-05-15T12:01:29.462Z,3.88
2023-05-15T12:03:56.775Z,3.67
2023-05-15T12:06:24.398Z,4.38
2023-05-15T12:08:52.857Z,3.75
2023-05-15T12:11:24.224Z,4.47
2023-05-15T12:13:55.210Z,3.90
2023-05-15T12:16:26.668Z,3.38
2023-05-15T12:21:20.998Z,4.55
2023-05-15T12:24:07.127Z,4.80
2023-05-15T12:26:36.113Z,3.50
2023-05-15T12:29:04.386Z,4.70
2023-05-15T12:31:33.186Z,3.92
2023-05-15T12:34:00.537Z,4.20
2023-05-15T12:36:29.919Z,4.10
2023-05-15T12:38:58.134Z,5.93
2023-05-15T12:41:29.295Z,5.10
2023-05-15T12:43:56.145Z,4.80
2023-05-15T12:46:25.684Z,4.78
2023-05-15T12:48:52.708Z,3.53
2023-05-15T12:51:22.594Z,3.97
2023-05-15T12:53:53.100Z,5.10
2023-05-15T12:56:20.126Z,5.57
2023-05-15T12:58:49.713Z,6.13
2023-05-15T13:01:22.229Z,6.00
2023-05-15T13:03:53.289Z,6.32
2023-05-15T13:06:23.582Z,5.75
2023-05-15T13:08:50.924Z,6.45
2023-05-15T13:11:18.326Z,5.07
2023-05-15T13:13:49.626Z,7.90
2023-05-15T13:16:26.707Z,6.20
2023-05-15T13:18:53.938Z,9.73
2023-05-15T13:21:21.092Z,6.55
2023-05-15T13:23:48.048Z,7.28
2023-05-15T13:26:15.017Z,5.80
2023-05-15T13:28:42.220Z,6.82
2023-05-15T13:31:09.213Z,6.97
2023-05-15T13:33:36.155Z,4.40
2023-05-15T13:38:48.099Z,5.10
2023-05-15T13:41:15.038Z,2.70
2023-05-15T13:43:41.982Z,3.55
2023-05-15T13:46:08.912Z,7.07
2023-05-15T13:48:35.870Z,6.82
2023-05-15T13:51:02.801Z,3.83
2023-05-15T13:53:29.710Z,4.18
2023-05-15T13:55:56.774Z,2.67
2023-05-15T13:58:26.643Z,2.55
2023-05-15T14:00:53.822Z,2.30
2023-05-15T14:03:20.879Z,3.65
2023-05-15T14:05:47.926Z,2.50
2023-05-15T14:08:15.816Z,1.90
2023-05-15T14:10:43.874Z,4.80
2023-05-15T14:13:10.829Z,4.15
2023-05-15T14:15:37.756Z,2.13
2023-05-15T14:18:04.672Z,3.38
2023-05-15T14:20:31.726Z,2.38
2023-05-15T14:22:58.661Z,4.35
2023-05-15T14:25:25.812Z,4.47
2023-05-15T14:27:52.899Z,3.20
2023-05-15T14:30:21.727Z,2.60
2023-05-15T14:32:48.665Z,2.13
2023-05-15T14:35:15.667Z,2.25
2023-05-15T14:37:43.441Z,2.38
2023-05-15T14:40:11.362Z,2.53
2023-05-15T14:42:38.518Z,3.75
2023-05-15T14:45:05.727Z,2.40
2023-05-15T14:47:33.739Z,1.83
2023-05-15T14:50:00.743Z,2.40
2023-05-15T14:52:27.621Z,4.20
2023-05-15T14:55:07.993Z,4.40
2023-05-15T14:57:37.165Z,2.50
2023-05-15T15:00:11.136Z,2.78
2023-05-15T15:02:38.237Z,5.00
2023-05-15T15:05:06.785Z,4.32
2023-05-15T15:08:09.557Z,5.18
2023-05-15T15:10:38.666Z,3.53
2023-05-15T15:13:06.698Z,3.72
2023-05-15T15:15:34.604Z,3.10
2023-05-15T15:18:02.261Z,2.88
2023-05-15T15:20:29.775Z,4.15
2023-05-15T15:22:57.181Z,3.65
2023-05-15T15:25:24.550Z,3.85
2023-05-15T15:27:52.060Z,3.53
2023-05-15T15:30:19.192Z,3.00
2023-05-15T15:32:46.284Z,3.15
2023-05-15T15:35:13.803Z,3.78
2023-05-15T15:37:40.908Z,3.10
2023-05-15T15:40:08.419Z,3.97
2023-05-15T15:42:36.418Z,5.18
2023-05-15T15:45:03.718Z,4.38
2023-05-15T15:47:32.108Z,3.72
2023-05-15T15:49:59.798Z,4.22
2023-05-15T15:52:27.486Z,4.60
2023-05-15T15:54:54.576Z,4.20
2023-05-15T15:57:21.963Z,3.78
2023-05-15T15:59:49.420Z,4.53
2023-05-15T16:02:17.564Z,5.45
2023-05-15T16:04:44.944Z,5.85
2023-05-15T16:07:11.899Z,4.57
2023-05-15T16:09:38.837Z,3.63
2023-05-15T16:12:05.989Z,7.28
2023-05-15T16:14:33.161Z,4.85
2023-05-15T16:17:02.691Z,4.30
2023-05-15T16:19:30.404Z,5.10
2023-05-15T16:21:57.405Z,5.65
2023-05-15T16:24:24.454Z,6.70
2023-05-15T16:26:51.499Z,8.02
2023-05-15T16:29:19.018Z,5.88
2023-05-15T16:31:46.997Z,4.65
2023-05-15T16:34:14.626Z,5.22
2023-05-15T16:36:42.773Z,10.18
2023-05-15T16:39:09.707Z,6.50
2023-05-15T16:41:36.802Z,10.30
2023-05-15T16:44:06.102Z,19.88
2023-05-15T16:46:33.350Z,15.50
2023-05-15T16:49:00.355Z,8.68
2023-05-15T16:51:27.346Z,6.32
2023-05-15T16:53:56.260Z,4.10
2023-05-15T16:56:23.295Z,4.10
2023-05-15T16:58:50.871Z,4.45
2023-05-15T17:01:17.953Z,9.35
2023-05-15T17:03:45.033Z,8.27
2023-05-15T17:06:12.217Z,7.55
2023-05-15T17:08:39.148Z,5.22
2023-05-15T17:11:06.078Z,4.50
2023-05-15T17:13:32.980Z,4.75
2023-05-15T17:16:02.962Z,7.45
2023-05-15T17:18:29.958Z,5.15
2023-05-15T17:20:56.928Z,8.52
2023-05-15T17:23:24.380Z,6.78
2023-05-15T17:25:51.573Z,4.10
2023-05-15T17:28:18.706Z,13.68
2023-05-15T17:30:45.730Z,10.25
2023-05-15T17:33:12.757Z,4.28
2023-05-15T17:35:39.699Z,4.78
2023-05-15T17:38:06.931Z,7.32
2023-05-15T17:40:33.949Z,5.15
2023-05-15T17:43:00.897Z,4.90
2023-05-15T17:45:27.938Z,6.45
2023-05-15T17:47:59.249Z,4.05
2023-05-15T17:50:26.305Z,4.57
2023-05-15T17:52:53.258Z,5.50
2023-05-15T17:55:20.197Z,4.47
2023-05-15T17:57:48.429Z,5.45
2023-05-15T18:00:17.329Z,4.43
2023-05-15T18:02:44.230Z,7.22
2023-05-15T18:05:11.251Z,4.97
2023-05-15T18:07:38.353Z,5.32
2023-05-15T18:10:06.635Z,5.47
2023-05-15T18:12:35.206Z,7.30
2023-05-15T18:15:02.377Z,5.65
2023-05-15T18:17:29.648Z,5.60
2023-05-15T18:19:56.824Z,11.02
2023-05-15T18:22:23.926Z,16.13
2023-05-15T18:24:50.926Z,12.23
2023-05-15T18:27:17.922Z,17.55
2023-05-15T18:29:45.643Z,18.05
2023-05-15T18:32:12.902Z,27.75
2023-05-15T18:34:39.936Z,19.98
2023-05-15T18:37:07.014Z,12.40
2023-05-15T18:39:36.694Z,13.70
2023-05-15T18:42:07.120Z,8.02
2023-05-15T18:44:35.798Z,8.15
2023-05-15T18:47:03.022Z,8.13
2023-05-15T18:49:29.974Z,11.25
2023-05-15T18:51:57.963Z,8.63
2023-05-15T18:54:25.086Z,7.90
2023-05-15T18:56:52.205Z,8.50
2023-05-15T18:59:20.543Z,7.60
2023-05-15T19:01:49.234Z,7.43
2023-05-15T19:04:16.133Z,8.85
2023-05-15T19:06:43.901Z,9.52
2023-05-15T19:09:10.810Z,10.30
2023-05-15T19:11:37.881Z,8.88
2023-05-15T19:14:04.855Z,9.30
2023-05-15T19:16:34.166Z,7.22
2023-05-15T19:19:01.044Z,8.48
2023-05-15T19:21:27.998Z,10.57
2023-05-15T19:23:54.890Z,9.63
2023-05-15T19:26:22.098Z,10.05
2023-05-15T19:28:49.506Z,8.70
2023-05-15T19:31:27.836Z,9.05
2023-05-15T19:33:58.323Z,10.65
2023-05-15T19:36:25.877Z,11.13
2023-05-15T19:38:53.416Z,9.02
2023-05-15T19:41:21.637Z,8.43
2023-05-15T19:43:50.814Z,7.93
2023-05-15T19:46:19.185Z,8.80
2023-05-15T19:48:46.423Z,8.70
2023-05-15T19:51:13.398Z,7.07
2023-05-15T19:53:41.363Z,8.13
2023-05-15T19:56:08.459Z,8.65
2023-05-15T19:58:35.607Z,8.48
2023-05-15T20:01:02.510Z,7.05
2023-05-15T20:03:33.326Z,9.45
2023-05-15T20:06:01.400Z,8.70
2023-05-15T20:08:29.095Z,8.68
2023-05-15T20:10:56.231Z,9.43
2023-05-15T20:13:23.828Z,17.27
2023-05-15T20:16:00.854Z,8.77
2023-05-15T20:18:32.212Z,8.63
2023-05-15T20:21:00.864Z,10.85
2023-05-15T20:23:28.571Z,9.23
2023-05-15T20:25:55.699Z,7.53
2023-05-15T20:28:25.279Z,8.07
2023-05-15T20:30:52.749Z,6.93
2023-05-15T20:33:19.882Z,6.80
2023-05-15T20:35:47.153Z,5.60
2023-05-15T20:38:14.575Z,6.30
2023-05-15T20:40:44.577Z,7.32
2023-05-15T20:43:14.223Z,7.22
2023-05-15T20:45:41.561Z,5.80
2023-05-15T20:48:10.969Z,6.85
2023-05-15T20:50:38.211Z,6.53
2023-05-15T20:53:05.190Z,8.07
2023-05-15T20:55:32.112Z,7.18
2023-05-15T20:58:00.578Z,10.27
2023-05-15T21:00:28.908Z,7.47
2023-05-15T21:02:56.161Z,6.68
2023-05-15T21:05:23.179Z,5.97
2023-05-15T21:07:50.188Z,7.93
2023-05-15T21:10:17.077Z,7.70
2023-05-15T21:12:44.144Z,6.70
2023-05-15T21:15:11.407Z,6.82
2023-05-15T21:17:39.105Z,9.23
2023-05-15T21:20:06.818Z,6.90
2023-05-15T21:22:35.186Z,8.32
2023-05-15T21:25:02.248Z,6.25
2023-05-15T21:27:29.180Z,6.03
2023-05-15T21:29:56.074Z,6.95
2023-05-15T21:32:23.796Z,6.60
2023-05-15T21:34:51.124Z,10.25
2023-05-15T21:37:18.053Z,6.20
2023-05-15T21:39:44.972Z,6.45
2023-05-15T21:42:11.870Z,9.13
2023-05-15T21:44:38.836Z,6.05
2023-05-15T21:47:06.322Z,6.43
2023-05-15T21:49:33.294Z,8.75
2023-05-15T21:52:00.341Z,7.32
2023-05-15T21:54:27.263Z,7.25
2023-05-15T21:56:54.168Z,6.32
2023-05-15T21:59:21.674Z,5.28
2023-05-15T22:01:48.622Z,7.53
2023-05-15T22:04:15.655Z,7.85
2023-05-15T22:06:43.530Z,6.00
2023-05-15T22:09:10.416Z,6.95
2023-05-15T22:11:37.373Z,7.90
2023-05-15T22:14:06.100Z,5.38
2023-05-15T22:16:33.265Z,7.50
2023-05-15T22:19:02.233Z,5.65
2023-05-15T22:21:29.268Z,5.53
2023-05-15T22:23:58.919Z,8.32
2023-05-15T22:26:26.707Z,6.72
2023-05-15T22:28:56.652Z,11.23
2023-05-15T22:31:23.667Z,6.10
2023-05-15T22:33:50.654Z,8.98
2023-05-15T22:36:17.881Z,6.43
2023-05-15T22:38:45.042Z,8.48
2023-05-15T22:41:11.989Z,9.95
2023-05-15T22:43:38.863Z,6.75
2023-05-15T22:46:05.931Z,6.95
2023-05-15T22:48:33.001Z,6.22
2023-05-15T22:51:00.051Z,6.72
2023-05-15T22:53:27.509Z,6.65
2023-05-15T22:55:54.429Z,6.55
2023-05-15T22:58:21.680Z,6.93
2023-05-15T23:00:48.557Z,7.18
2023-05-15T23:03:15.723Z,5.70
2023-05-15T23:05:42.802Z,5.75
2023-05-15T23:08:09.686Z,5.88
2023-05-15T23:10:36.709Z,6.10
2023-05-15T23:13:04.573Z,6.80
2023-05-15T23:15:31.509Z,6.93
2023-05-15T23:17:58.552Z,8.05
2023-05-15T23:20:26.097Z,6.60
2023-05-15T23:22:53.385Z,9.63
2023-05-15T23:25:20.653Z,7.72
2023-05-15T23:27:47.704Z,8.23
2023-05-15T23:30:15.249Z,6.47
2023-05-15T23:32:42.140Z,6.43
2023-05-15T23:35:09.524Z,5.38
2023-05-15T23:37:37.095Z,5.80
2023-05-15T23:40:05.554Z,7.50
2023-05-15T23:42:32.759Z,12.88
2023-05-15T23:44:59.927Z,9.00
2023-05-15T23:47:26.874Z,7.80
2023-05-15T23:49:54.010Z,7.88
2023-05-15T23:52:20.994Z,8.85
2023-05-15T23:54:47.991Z,7.90
2023-05-15T23:57:15.590Z,7.05
2023-05-15T23:59:42.586Z,8.63
